首页
METAR-TAF:

METAR-TAF

机场 :

策勒, 德国

纬度: 52-36N, 经度: 010-01E, 海拔: 39米

当前天气观测

该预报发布于15分钟前的10:20 UTC
风速4节,风向
温度 5°C
湿度 93%
气压 1009 hPa
能見度: 8000
少量云层高于500英尺
多云层高于10000英尺
多云层高于23000英尺

METAR: ETHC 221020Z 09004KT 8000 FEW005 BKN100 BKN230 05/04 Q1009 BLU BLU

时间: 11:35 (10:35 UTC)

预报

该预报发布于2小时和20分钟前的08:15 UTC
预报有效从22日的 09点(UTC)到 22日的 18点(UTC)
风速3节,风向
能見度: 5000
少量云层高于13000英尺
多云层高于20000英尺
轻雾
短暂存在
从 22日的 09点(UTC)到 22日的 11点(UTC)
风速3节,风向
能見度: 2000
散云层高于300英尺
多云层高于25000英尺
轻雾
成为
从 22日的 11点(UTC)到 22日的 13点(UTC)
风速5节,风向
能見度: 8000
少量云层高于6000英尺
多云层高于17000英尺

TAF: ETHC 220815Z 2209/2218 08003KT 5000 BR FEW130 BKN200 TEMPO 2209/2211 10003KT 2000 BR SCT003 BKN250 BECMG 2211/2213 10005KT 8000 NSW FEW060 BKN170

超过4000个机场的气象观测和天气预报(METAR&TAF报告)。

可查询的气象台以黄色和红色小点在地图上表示。

将鼠标移到小点上方,可查看气象台名称。

然后点击查看天气观测和预报。

如需切换地图:点击带黑十字的绿色按钮放大地图;点击带横线的绿色按钮缩小地图;或者点击绿色箭头查看邻近地区的地图。


METAR-TAF: